Weather at Ibiza Airport

Public forecast

Using degrees Celsius for public forecast. Weather courtesy of forecast.io.

Current aviation weather report (METAR) for Ibiza Airport

2024/07/19 09:00 (retrieved 28 minutes ago)

LEIB 190900Z 08007KT 050V110 CAVOK 29/18 Q1017 NOSIG

Aviation forecast (TAF) for Ibiza Airport

2024/07/19 09:27 (retrieved 1 minute ago)

TAF LEIB 190800Z 1909/2009 06005KT CAVOK TX31/1912Z TN24/2005Z BECMG 1909/1911 10008KT BECMG 1920/1922 VRB04KT BECMG 2006/2008 18010KT